createdAt,value
2019-04-29T00:01:55.362Z,101731.72
2019-04-29T00:06:49.293Z,101735.20
2019-04-29T00:11:43.142Z,101728.59
2019-04-29T00:16:49.120Z,101736.01
2019-04-29T00:21:42.860Z,101735.27
2019-04-29T00:26:36.682Z,101743.59
2019-04-29T00:31:30.333Z,101750.66
2019-04-29T00:36:26.270Z,101753.74
2019-04-29T00:41:36.878Z,101754.06
2019-04-29T00:46:30.797Z,101759.61
2019-04-29T00:51:24.682Z,101765.95
2019-04-29T00:56:18.768Z,101771.30
2019-04-29T01:01:16.904Z,101770.37
2019-04-29T01:06:11.111Z,101767.34
2019-04-29T01:11:04.928Z,101768.61
2019-04-29T01:15:58.733Z,101767.85
2019-04-29T01:20:52.416Z,101764.98
2019-04-29T01:25:48.740Z,101767.98
2019-04-29T01:30:56.754Z,101770.50
2019-04-29T01:35:52.855Z,101773.14
2019-04-29T01:41:03.072Z,101773.42
2019-04-29T01:45:56.794Z,101778.54
2019-04-29T01:50:52.285Z,101779.52
2019-04-29T01:55:46.204Z,101780.51
2019-04-29T02:00:40.238Z,101788.64
2019-04-29T02:05:33.966Z,101784.12
2019-04-29T02:10:32.037Z,101792.92
2019-04-29T02:15:25.857Z,101792.02
2019-04-29T02:20:19.625Z,101796.56
2019-04-29T02:25:18.069Z,101795.77
2019-04-29T02:30:28.956Z,101799.66
2019-04-29T02:35:22.756Z,101803.41
2019-04-29T02:40:27.633Z,101799.42
2019-04-29T02:45:25.942Z,101800.91
2019-04-29T02:50:19.935Z,101798.88
2019-04-29T02:55:17.491Z,101800.67
2019-04-29T03:00:40.169Z,101796.45
2019-04-29T03:05:39.991Z,101797.06
2019-04-29T03:10:34.078Z,101798.95
2019-04-29T03:15:32.028Z,101794.56
2019-04-29T03:20:31.791Z,101797.58
2019-04-29T03:25:25.713Z,101801.27
2019-04-29T03:30:19.586Z,101805.91
2019-04-29T03:35:13.494Z,101803.89
2019-04-29T03:40:07.473Z,101803.74
2019-04-29T03:45:01.254Z,101805.37
2019-04-29T03:49:56.553Z,101808.03
2019-04-29T03:54:50.675Z,101811.84
2019-04-29T03:59:44.319Z,101818.28
2019-04-29T04:05:15.810Z,101822.73
2019-04-29T04:10:10.112Z,101827.08
2019-04-29T04:15:04.532Z,101826.33
2019-04-29T04:19:58.311Z,101832.02
2019-04-29T04:24:52.512Z,101829.82
2019-04-29T04:29:46.408Z,101828.27
2019-04-29T04:34:40.023Z,101832.28
2019-04-29T04:39:35.666Z,101833.90
2019-04-29T04:44:48.216Z,101841.41
2019-04-29T04:49:42.442Z,101844.09
2019-04-29T04:54:36.217Z,101836.16
2019-04-29T04:59:30.862Z,101847.44
2019-04-29T05:04:24.508Z,101856.14
2019-04-29T05:09:20.078Z,101859.78
2019-04-29T05:14:13.948Z,101863.80
2019-04-29T05:19:07.700Z,101869.10
2019-04-29T05:24:01.309Z,101862.52
2019-04-29T05:28:55.198Z,101878.09
2019-04-29T05:33:49.317Z,101867.19
2019-04-29T05:38:47.037Z,101862.78
2019-04-29T05:43:53.066Z,101857.94
2019-04-29T05:48:47.251Z,101852.83
2019-04-29T05:53:47.840Z,101864.16
2019-04-29T05:58:41.391Z,101867.10
2019-04-29T06:03:38.032Z,101875.87
2019-04-29T06:08:34.410Z,101890.59
2019-04-29T06:13:27.204Z,101890.08
2019-04-29T06:18:22.103Z,101890.80
2019-04-29T06:23:18.982Z,101893.29
2019-04-29T06:28:12.631Z,101884.80
2019-04-29T06:33:06.743Z,101881.66
2019-04-29T06:38:01.055Z,101868.15
2019-04-29T06:42:55.191Z,101885.59
2019-04-29T06:47:49.316Z,101877.53
2019-04-29T06:52:43.290Z,101890.90
2019-04-29T06:57:37.414Z,101884.11
2019-04-29T07:02:36.082Z,101879.97
2019-04-29T07:07:30.098Z,101866.38
2019-04-29T07:12:23.910Z,101882.50
2019-04-29T07:17:17.783Z,101875.80
2019-04-29T07:22:11.787Z,101881.05
2019-04-29T07:27:05.760Z,101885.79
2019-04-29T07:31:59.743Z,101869.95
2019-04-29T07:36:57.622Z,101869.77
2019-04-29T07:41:53.403Z,101880.09
2019-04-29T07:46:56.827Z,101874.42
2019-04-29T07:51:46.954Z,101884.04
2019-04-29T07:56:42.274Z,101876.41
2019-04-29T08:01:38.519Z,101878.30
2019-04-29T08:06:38.127Z,101876.05
2019-04-29T08:11:31.341Z,101859.22
2019-04-29T08:16:25.236Z,101853.38
2019-04-29T08:21:23.860Z,101847.11
2019-04-29T08:26:18.209Z,101846.81
2019-04-29T08:31:12.400Z,101860.23
2019-04-29T08:36:06.590Z,101869.23
2019-04-29T08:41:00.640Z,101853.06
2019-04-29T08:45:58.979Z,101851.01
2019-04-29T08:50:53.101Z,101862.93
2019-04-29T08:55:47.330Z,101866.16
2019-04-29T09:00:41.385Z,101860.14
2019-04-29T09:05:35.498Z,101852.22
2019-04-29T09:10:32.979Z,101850.98
2019-04-29T09:15:25.122Z,101858.73
2019-04-29T09:20:19.024Z,101851.31
2019-04-29T09:25:37.235Z,101839.89
2019-04-29T09:30:31.049Z,101842.67
2019-04-29T09:35:24.961Z,101837.35
2019-04-29T09:40:22.278Z,101835.97
2019-04-29T09:45:44.643Z,101826.76
2019-04-29T09:50:40.670Z,101824.81
2019-04-29T09:55:35.731Z,101829.83
2019-04-29T10:01:01.927Z,101828.59
2019-04-29T10:06:06.183Z,101827.25
2019-04-29T10:11:00.194Z,101825.92
2019-04-29T10:16:14.331Z,101825.84
2019-04-29T10:21:10.371Z,101822.95
2019-04-29T10:26:04.788Z,101817.05
2019-04-29T10:30:59.178Z,101805.88
2019-04-29T10:35:53.471Z,101805.52
2019-04-29T10:41:06.925Z,101796.66
2019-04-29T10:46:25.950Z,101795.38
2019-04-29T10:51:23.258Z,101797.06
2019-04-29T10:56:17.599Z,101795.19
2019-04-29T11:02:35.173Z,101789.67
2019-04-29T11:07:34.555Z,101780.80
2019-04-29T11:12:28.672Z,101778.52
2019-04-29T11:17:24.519Z,101770.42
2019-04-29T11:22:20.402Z,101766.44
2019-04-29T11:27:21.772Z,101758.02
2019-04-29T11:32:24.919Z,101765.97
2019-04-29T11:37:23.903Z,101765.87
2019-04-29T11:42:17.102Z,101760.39
2019-04-29T11:47:11.097Z,101753.40
2019-04-29T11:52:09.839Z,101755.34
2019-04-29T11:57:00.803Z,101758.83
2019-04-29T12:02:14.113Z,101766.30
2019-04-29T12:07:08.300Z,101752.26
2019-04-29T12:12:02.433Z,101726.51
2019-04-29T12:17:05.517Z,101718.86
2019-04-29T12:22:04.707Z,101717.13
2019-04-29T12:26:56.885Z,101714.25
2019-04-29T12:32:20.560Z,101718.55
2019-04-29T12:37:25.644Z,101711.73
2019-04-29T12:42:48.278Z,101703.25
2019-04-29T12:47:43.603Z,101708.33
2019-04-29T12:52:37.612Z,101697.23
2019-04-29T12:57:31.531Z,101678.52
2019-04-29T13:02:50.986Z,101672.00
2019-04-29T13:08:10.003Z,101686.13
2019-04-29T13:13:04.351Z,101676.98
2019-04-29T13:18:13.492Z,101657.66
2019-04-29T13:23:17.547Z,101643.28
2019-04-29T13:28:04.015Z,101647.25
2019-04-29T13:32:56.254Z,101637.81
2019-04-29T13:37:50.310Z,101637.41
2019-04-29T13:42:48.596Z,101640.11
2019-04-29T13:47:53.426Z,101633.06
2019-04-29T13:52:47.523Z,101634.83
2019-04-29T13:57:45.059Z,101624.02
2019-04-29T14:02:41.247Z,101635.30
2019-04-29T14:07:34.976Z,101631.92
2019-04-29T14:17:26.892Z,101627.92
2019-04-29T14:22:22.417Z,101624.48
2019-04-29T14:27:24.743Z,101622.12
2019-04-29T14:32:11.831Z,101625.31
2019-04-29T14:37:19.602Z,101616.75
2019-04-29T14:42:06.368Z,101621.21
2019-04-29T14:47:10.001Z,101610.77
2019-04-29T14:52:08.342Z,101611.50
2019-04-29T14:57:00.137Z,101617.53
2019-04-29T15:01:59.431Z,101617.84
2019-04-29T15:06:53.831Z,101616.76
2019-04-29T15:12:08.690Z,101614.75
2019-04-29T15:17:21.437Z,101621.46
2019-04-29T15:22:16.531Z,101611.51
2019-04-29T15:27:10.480Z,101606.97
2019-04-29T15:32:04.590Z,101608.45
2019-04-29T15:36:58.672Z,101603.94
2019-04-29T15:41:54.686Z,101607.69
2019-04-29T15:46:48.815Z,101598.70
2019-04-29T15:51:44.125Z,101599.27
2019-04-29T15:56:39.973Z,101599.45
2019-04-29T16:01:34.148Z,101595.27
2019-04-29T16:06:59.484Z,101608.08
2019-04-29T16:12:05.157Z,101609.67
2019-04-29T16:16:56.773Z,101593.59
2019-04-29T16:21:51.523Z,101599.16
2019-04-29T16:26:45.399Z,101609.30
2019-04-29T16:31:39.196Z,101613.73
2019-04-29T16:36:33.266Z,101612.48
2019-04-29T16:41:58.250Z,101612.88
2019-04-29T16:46:48.926Z,101623.13
2019-04-29T16:51:47.779Z,101608.77
2019-04-29T16:56:38.448Z,101611.70
2019-04-29T17:01:32.489Z,101622.94
2019-04-29T17:06:26.731Z,101615.12
2019-04-29T17:11:25.821Z,101609.41
2019-04-29T17:16:21.244Z,101622.25
2019-04-29T17:21:15.141Z,101618.39
2019-04-29T17:26:09.229Z,101617.63
2019-04-29T17:31:25.594Z,101625.06
2019-04-29T17:36:23.782Z,101621.06
2019-04-29T17:41:15.730Z,101622.16
2019-04-29T17:46:44.067Z,101622.64
2019-04-29T17:51:38.563Z,101616.80
2019-04-29T17:56:45.047Z,101625.95
2019-04-29T18:01:58.301Z,101626.97
2019-04-29T18:07:18.645Z,101626.09
2019-04-29T18:12:22.362Z,101626.02
2019-04-29T18:17:26.712Z,101633.83
2019-04-29T18:22:32.538Z,101639.00
2019-04-29T18:27:27.858Z,101637.55
2019-04-29T18:32:33.492Z,101647.39
2019-04-29T18:37:19.411Z,101645.76
2019-04-29T18:42:13.215Z,101643.60
2019-04-29T18:47:07.139Z,101657.07
2019-04-29T18:52:02.292Z,101652.86
2019-04-29T18:56:56.849Z,101659.88
2019-04-29T19:01:50.791Z,101658.77
2019-04-29T19:06:45.018Z,101660.28
2019-04-29T19:11:38.948Z,101665.16
2019-04-29T19:16:33.054Z,101661.36
2019-04-29T19:21:30.467Z,101661.37
2019-04-29T19:26:25.843Z,101663.62
2019-04-29T19:31:18.764Z,101674.84
2019-04-29T19:36:17.173Z,101670.22
2019-04-29T19:41:11.501Z,101675.27
2019-04-29T19:46:05.841Z,101680.83
2019-04-29T19:51:14.722Z,101684.70
2019-04-29T19:56:04.210Z,101685.33
2019-04-29T20:00:52.755Z,101690.91
2019-04-29T20:06:07.582Z,101686.20
2019-04-29T20:10:52.462Z,101688.04
2019-04-29T20:16:12.613Z,101696.83
2019-04-29T20:21:13.927Z,101688.83
2019-04-29T20:26:13.732Z,101693.38
2019-04-29T20:31:15.461Z,101689.75
2019-04-29T20:36:02.200Z,101688.23
2019-04-29T20:40:55.244Z,101691.05
2019-04-29T20:45:49.757Z,101689.30
2019-04-29T20:50:47.730Z,101696.94
2019-04-29T20:55:39.294Z,101686.70
2019-04-29T21:00:35.944Z,101692.94
2019-04-29T21:05:31.659Z,101691.39
2019-04-29T21:10:27.029Z,101697.22
2019-04-29T21:15:30.104Z,101692.33
2019-04-29T21:20:26.291Z,101693.65
2019-04-29T21:25:19.736Z,101689.00
2019-04-29T21:30:13.949Z,101688.07
2019-04-29T21:35:18.684Z,101688.64
2019-04-29T21:40:26.531Z,101686.58
2019-04-29T21:45:20.368Z,101687.87
2019-04-29T21:50:15.299Z,101688.06
2019-04-29T21:55:09.506Z,101693.38
2019-04-29T22:00:05.678Z,101697.05
2019-04-29T22:04:59.628Z,101703.20
2019-04-29T22:09:55.482Z,101704.70
2019-04-29T22:14:53.944Z,101708.26
2019-04-29T22:19:45.153Z,101711.14
2019-04-29T22:24:38.987Z,101719.45
2019-04-29T22:29:37.451Z,101718.36
2019-04-29T22:34:29.208Z,101711.27
2019-04-29T22:39:26.749Z,101713.72
2019-04-29T22:44:21.804Z,101722.63
2019-04-29T22:49:20.007Z,101721.92
2019-04-29T22:54:10.531Z,101723.34
2019-04-29T22:59:05.777Z,101730.65
2019-04-29T23:03:59.946Z,101732.97
2019-04-29T23:08:53.819Z,101714.27
2019-04-29T23:13:49.092Z,101717.94
2019-04-29T23:18:44.052Z,101718.72
2019-04-29T23:23:45.396Z,101721.44
2019-04-29T23:28:39.324Z,101710.22
2019-04-29T23:33:33.277Z,101712.91
2019-04-29T23:38:27.265Z,101708.24
2019-04-29T23:43:25.345Z,101705.36
2019-04-29T23:48:19.898Z,101707.55
2019-04-29T23:53:12.464Z,101698.95
2019-04-29T23:58:25.971Z,101705.25
